sensor_id;sensor_type;location;lat;lon;timestamp;pressure;altitude;pressure_sealevel;temperature;humidity
45323;BME280;31382;50.200;8.674;2022-11-12T00:01:26;102055.41;;;8.96;77.02
45323;BME280;31382;50.200;8.674;2022-11-12T00:06:28;102053.97;;;9.15;76.74
45323;BME280;31382;50.200;8.674;2022-11-12T00:11:29;102052.94;;;9.27;76.64
45323;BME280;31382;50.200;8.674;2022-11-12T00:16:31;102060.00;;;9.39;76.45
45323;BME280;31382;50.200;8.674;2022-11-12T00:21:32;102070.72;;;9.50;76.31
45323;BME280;31382;50.200;8.674;2022-11-12T00:26:33;102073.13;;;9.53;76.21
45323;BME280;31382;50.200;8.674;2022-11-12T00:31:35;102074.34;;;9.49;76.14
45323;BME280;31382;50.200;8.674;2022-11-12T00:36:37;102064.72;;;9.58;76.06
45323;BME280;31382;50.200;8.674;2022-11-12T00:41:38;102067.84;;;9.63;75.77
45323;BME280;31382;50.200;8.674;2022-11-12T00:46:40;102071.94;;;9.46;76.58
45323;BME280;31382;50.200;8.674;2022-11-12T00:51:41;102057.19;;;9.29;76.80
45323;BME280;31382;50.200;8.674;2022-11-12T00:56:45;102057.25;;;9.07;77.44
45323;BME280;31382;50.200;8.674;2022-11-12T01:01:46;102048.09;;;9.09;77.18
45323;BME280;31382;50.200;8.674;2022-11-12T01:06:48;102049.38;;;8.83;77.13
45323;BME280;31382;50.200;8.674;2022-11-12T01:11:49;102051.78;;;8.63;77.79
45323;BME280;31382;50.200;8.674;2022-11-12T01:16:50;102060.97;;;8.37;77.95
45323;BME280;31382;50.200;8.674;2022-11-12T01:21:52;102053.53;;;8.18;77.82
45323;BME280;31382;50.200;8.674;2022-11-12T01:26:53;102049.34;;;8.13;78.01
45323;BME280;31382;50.200;8.674;2022-11-12T01:31:55;102047.19;;;8.19;77.71
45323;BME280;31382;50.200;8.674;2022-11-12T01:36:56;102038.19;;;8.31;77.91
45323;BME280;31382;50.200;8.674;2022-11-12T01:41:58;102045.50;;;8.29;77.32
45323;BME280;31382;50.200;8.674;2022-11-12T01:47:12;102044.03;;;8.25;78.03
45323;BME280;31382;50.200;8.674;2022-11-12T01:52:19;102049.16;;;8.28;77.57
45323;BME280;31382;50.200;8.674;2022-11-12T01:57:25;102036.25;;;8.33;77.53
45323;BME280;31382;50.200;8.674;2022-11-12T02:02:35;102049.69;;;8.44;77.39
45323;BME280;31382;50.200;8.674;2022-11-12T02:07:40;102039.84;;;8.56;77.49
45323;BME280;31382;50.200;8.674;2022-11-12T02:12:43;102034.22;;;8.70;77.01
45323;BME280;31382;50.200;8.674;2022-11-12T02:18:04;102031.31;;;8.85;76.87
45323;BME280;31382;50.200;8.674;2022-11-12T02:23:06;102040.44;;;8.93;76.83
45323;BME280;31382;50.200;8.674;2022-11-12T02:28:08;102044.47;;;8.88;76.87
45323;BME280;31382;50.200;8.674;2022-11-12T02:33:09;102042.50;;;8.79;76.85
45323;BME280;31382;50.200;8.674;2022-11-12T02:38:11;102041.44;;;8.81;77.03
45323;BME280;31382;50.200;8.674;2022-11-12T02:43:12;102042.16;;;8.95;76.20
45323;BME280;31382;50.200;8.674;2022-11-12T02:48:14;102041.88;;;9.09;76.11
45323;BME280;31382;50.200;8.674;2022-11-12T02:53:25;102035.75;;;9.18;76.15
45323;BME280;31382;50.200;8.674;2022-11-12T02:58:27;102043.34;;;9.24;76.05
45323;BME280;31382;50.200;8.674;2022-11-12T03:03:29;102039.19;;;9.20;76.53
45323;BME280;31382;50.200;8.674;2022-11-12T03:08:30;102031.16;;;9.09;76.30
45323;BME280;31382;50.200;8.674;2022-11-12T03:13:32;102041.91;;;8.98;77.02
45323;BME280;31382;50.200;8.674;2022-11-12T03:18:33;102041.41;;;8.92;76.97
45323;BME280;31382;50.200;8.674;2022-11-12T03:23:35;102036.78;;;8.95;76.71
45323;BME280;31382;50.200;8.674;2022-11-12T03:28:36;102034.84;;;8.97;76.96
45323;BME280;31382;50.200;8.674;2022-11-12T03:33:37;102033.72;;;8.99;76.82
45323;BME280;31382;50.200;8.674;2022-11-12T03:38:39;102029.38;;;8.87;77.26
45323;BME280;31382;50.200;8.674;2022-11-12T03:43:40;102019.38;;;8.89;77.38
45323;BME280;31382;50.200;8.674;2022-11-12T03:48:42;102027.03;;;8.82;77.58
45323;BME280;31382;50.200;8.674;2022-11-12T03:53:43;102018.25;;;8.91;77.33
45323;BME280;31382;50.200;8.674;2022-11-12T03:58:45;102016.06;;;8.97;76.77
45323;BME280;31382;50.200;8.674;2022-11-12T04:03:46;102022.16;;;8.99;76.89
45323;BME280;31382;50.200;8.674;2022-11-12T04:08:47;102029.44;;;9.08;76.70
45323;BME280;31382;50.200;8.674;2022-11-12T04:13:49;102023.34;;;9.06;76.42
45323;BME280;31382;50.200;8.674;2022-11-12T04:18:52;102025.19;;;9.05;76.47
45323;BME280;31382;50.200;8.674;2022-11-12T04:24:12;102031.66;;;8.91;77.16
45323;BME280;31382;50.200;8.674;2022-11-12T04:29:33;102027.91;;;8.83;77.14
45323;BME280;31382;50.200;8.674;2022-11-12T04:34:54;102033.28;;;8.83;76.87
45323;BME280;31382;50.200;8.674;2022-11-12T04:39:55;102040.09;;;8.76;76.98
45323;BME280;31382;50.200;8.674;2022-11-12T04:45:17;102028.63;;;8.73;76.56
45323;BME280;31382;50.200;8.674;2022-11-12T04:50:18;102039.34;;;8.73;77.17
45323;BME280;31382;50.200;8.674;2022-11-12T04:55:19;102035.09;;;8.71;77.20
45323;BME280;31382;50.200;8.674;2022-11-12T05:00:21;102042.78;;;8.76;77.09
45323;BME280;31382;50.200;8.674;2022-11-12T05:05:22;102031.78;;;8.79;76.59
45323;BME280;31382;50.200;8.674;2022-11-12T05:10:24;102034.47;;;8.79;76.64
45323;BME280;31382;50.200;8.674;2022-11-12T05:15:25;102028.63;;;8.73;77.11
45323;BME280;31382;50.200;8.674;2022-11-12T05:20:26;102026.41;;;8.79;77.13
45323;BME280;31382;50.200;8.674;2022-11-12T05:25:28;102033.13;;;8.84;77.08
45323;BME280;31382;50.200;8.674;2022-11-12T05:30:29;102029.88;;;8.81;77.28
45323;BME280;31382;50.200;8.674;2022-11-12T05:35:31;102026.06;;;8.72;77.35
45323;BME280;31382;50.200;8.674;2022-11-12T05:40:32;102031.53;;;8.70;77.42
45323;BME280;31382;50.200;8.674;2022-11-12T05:45:33;102033.38;;;8.70;77.10
45323;BME280;31382;50.200;8.674;2022-11-12T05:50:35;102039.00;;;8.67;77.06
45323;BME280;31382;50.200;8.674;2022-11-12T05:56:00;102031.91;;;8.88;76.58
45323;BME280;31382;50.200;8.674;2022-11-12T06:01:02;102036.41;;;8.99;76.48
45323;BME280;31382;50.200;8.674;2022-11-12T06:06:03;102036.41;;;9.10;76.71
45323;BME280;31382;50.200;8.674;2022-11-12T06:11:05;102036.75;;;9.17;76.39
45323;BME280;31382;50.200;8.674;2022-11-12T06:16:07;102033.94;;;9.19;76.26
45323;BME280;31382;50.200;8.674;2022-11-12T06:21:10;102042.63;;;9.11;76.28
45323;BME280;31382;50.200;8.674;2022-11-12T06:26:21;102042.75;;;8.98;76.71
45323;BME280;31382;50.200;8.674;2022-11-12T06:31:23;102050.78;;;8.98;76.73
45323;BME280;31382;50.200;8.674;2022-11-12T06:36:24;102062.00;;;9.03;76.59
45323;BME280;31382;50.200;8.674;2022-11-12T06:41:25;102058.09;;;9.07;76.60
45323;BME280;31382;50.200;8.674;2022-11-12T06:46:27;102055.06;;;8.89;76.51
45323;BME280;31382;50.200;8.674;2022-11-12T06:51:28;102057.59;;;9.02;76.67
45323;BME280;31382;50.200;8.674;2022-11-12T06:56:30;102060.44;;;9.01;76.89
45323;BME280;31382;50.200;8.674;2022-11-12T07:01:31;102050.06;;;9.07;76.38
45323;BME280;31382;50.200;8.674;2022-11-12T07:06:33;102059.78;;;9.20;76.19
45323;BME280;31382;50.200;8.674;2022-11-12T07:11:34;102059.88;;;9.29;76.01
45323;BME280;31382;50.200;8.674;2022-11-12T07:16:36;102072.69;;;9.26;76.24
45323;BME280;31382;50.200;8.674;2022-11-12T07:21:38;102076.47;;;9.35;76.13
45323;BME280;31382;50.200;8.674;2022-11-12T07:26:39;102073.03;;;9.44;75.87
45323;BME280;31382;50.200;8.674;2022-11-12T07:31:47;102083.41;;;9.48;76.19
45323;BME280;31382;50.200;8.674;2022-11-12T07:36:48;102075.31;;;9.60;75.99
45323;BME280;31382;50.200;8.674;2022-11-12T07:41:51;102072.84;;;9.68;76.11
45323;BME280;31382;50.200;8.674;2022-11-12T07:46:53;102063.56;;;9.72;75.94
45323;BME280;31382;50.200;8.674;2022-11-12T07:51:54;102069.66;;;9.74;76.17
45323;BME280;31382;50.200;8.674;2022-11-12T07:56:56;102060.75;;;9.73;76.11
45323;BME280;31382;50.200;8.674;2022-11-12T08:01:57;102054.63;;;9.71;76.33
45323;BME280;31382;50.200;8.674;2022-11-12T08:06:58;102052.19;;;9.80;76.18
45323;BME280;31382;50.200;8.674;2022-11-12T08:12:00;102054.97;;;9.78;76.16
45323;BME280;31382;50.200;8.674;2022-11-12T08:17:01;102062.31;;;9.76;76.14
45323;BME280;31382;50.200;8.674;2022-11-12T08:22:03;102069.03;;;9.70;76.16
45323;BME280;31382;50.200;8.674;2022-11-12T08:27:05;102072.50;;;9.61;76.06
45323;BME280;31382;50.200;8.674;2022-11-12T08:32:06;102063.56;;;9.72;76.08
45323;BME280;31382;50.200;8.674;2022-11-12T08:37:07;102073.06;;;9.76;75.79
45323;BME280;31382;50.200;8.674;2022-11-12T08:42:09;102069.13;;;9.80;75.70
45323;BME280;31382;50.200;8.674;2022-11-12T08:47:10;102064.50;;;9.82;75.54
45323;BME280;31382;50.200;8.674;2022-11-12T08:52:12;102072.06;;;9.77;75.71
45323;BME280;31382;50.200;8.674;2022-11-12T08:57:13;102079.97;;;9.90;75.46
45323;BME280;31382;50.200;8.674;2022-11-12T09:02:14;102074.53;;;10.01;75.48
45323;BME280;31382;50.200;8.674;2022-11-12T09:07:16;102068.66;;;10.07;75.16
45323;BME280;31382;50.200;8.674;2022-11-12T09:12:37;102064.72;;;10.11;75.26
45323;BME280;31382;50.200;8.674;2022-11-12T09:17:38;102070.09;;;10.11;75.09
45323;BME280;31382;50.200;8.674;2022-11-12T09:22:40;102071.19;;;10.09;74.81
45323;BME280;31382;50.200;8.674;2022-11-12T09:27:41;102068.25;;;10.12;74.90
45323;BME280;31382;50.200;8.674;2022-11-12T09:32:48;102070.81;;;10.13;74.94
45323;BME280;31382;50.200;8.674;2022-11-12T09:37:50;102057.63;;;10.10;74.83
45323;BME280;31382;50.200;8.674;2022-11-12T09:42:51;102069.66;;;9.95;74.86
45323;BME280;31382;50.200;8.674;2022-11-12T09:47:57;102070.03;;;10.02;74.50
45323;BME280;31382;50.200;8.674;2022-11-12T09:53:13;102075.38;;;10.02;74.73
45323;BME280;31382;50.200;8.674;2022-11-12T09:58:17;102076.16;;;9.92;74.52
45323;BME280;31382;50.200;8.674;2022-11-12T10:03:31;102078.00;;;9.92;74.58
45323;BME280;31382;50.200;8.674;2022-11-12T10:08:49;102074.28;;;10.04;74.57
45323;BME280;31382;50.200;8.674;2022-11-12T10:13:57;102068.50;;;10.09;74.74
45323;BME280;31382;50.200;8.674;2022-11-12T10:24:12;102056.56;;;10.23;74.95
45323;BME280;31382;50.200;8.674;2022-11-12T10:29:27;102050.69;;;10.29;74.83
45323;BME280;31382;50.200;8.674;2022-11-12T10:34:30;102049.19;;;10.36;75.01
45323;BME280;31382;50.200;8.674;2022-11-12T10:39:36;102039.81;;;10.51;74.47
45323;BME280;31382;50.200;8.674;2022-11-12T10:44:38;102036.75;;;10.66;74.55
45323;BME280;31382;50.200;8.674;2022-11-12T10:49:40;102042.16;;;10.76;74.18
45323;BME280;31382;50.200;8.674;2022-11-12T10:54:41;102032.44;;;10.84;73.40
45323;BME280;31382;50.200;8.674;2022-11-12T10:59:43;102042.22;;;10.85;73.26
45323;BME280;31382;50.200;8.674;2022-11-12T11:04:45;102038.00;;;10.93;73.50
45323;BME280;31382;50.200;8.674;2022-11-12T11:09:58;102035.81;;;10.77;73.73
45323;BME280;31382;50.200;8.674;2022-11-12T11:20:24;102026.31;;;10.73;73.11
45323;BME280;31382;50.200;8.674;2022-11-12T11:25:26;102026.34;;;10.51;73.43
45323;BME280;31382;50.200;8.674;2022-11-12T11:30:28;102006.19;;;10.67;73.11
45323;BME280;31382;50.200;8.674;2022-11-12T11:35:51;102003.28;;;10.89;72.85
45323;BME280;31382;50.200;8.674;2022-11-12T11:51:41;101993.41;;;11.09;72.28
45323;BME280;31382;50.200;8.674;2022-11-12T11:56:47;101993.56;;;10.98;72.34
45323;BME280;31382;50.200;8.674;2022-11-12T12:02:16;101982.91;;;10.87;72.27
45323;BME280;31382;50.200;8.674;2022-11-12T12:07:37;101977.81;;;10.94;72.49
45323;BME280;31382;50.200;8.674;2022-11-12T12:12:59;101973.72;;;11.09;72.29
45323;BME280;31382;50.200;8.674;2022-11-12T12:23:40;101967.41;;;11.29;71.95
45323;BME280;31382;50.200;8.674;2022-11-12T12:28:59;101961.84;;;11.31;72.16
45323;BME280;31382;50.200;8.674;2022-11-12T12:34:14;101958.44;;;11.19;72.12
45323;BME280;31382;50.200;8.674;2022-11-12T12:39:34;101962.41;;;11.35;72.07
45323;BME280;31382;50.200;8.674;2022-11-12T12:44:45;101953.06;;;11.48;71.37
45323;BME280;31382;50.200;8.674;2022-11-12T12:50:12;101939.19;;;11.43;71.37
45323;BME280;31382;50.200;8.674;2022-11-12T13:00:40;101935.75;;;11.51;71.50
45323;BME280;31382;50.200;8.674;2022-11-12T13:05:41;101927.69;;;11.51;71.46
45323;BME280;31382;50.200;8.674;2022-11-12T13:15:49;101918.91;;;11.39;71.38
45323;BME280;31382;50.200;8.674;2022-11-12T13:21:06;101918.78;;;11.21;72.10
45323;BME280;31382;50.200;8.674;2022-11-12T13:27:16;101916.25;;;11.29;71.50
45323;BME280;31382;50.200;8.674;2022-11-12T13:32:52;101915.22;;;11.01;71.85
45323;BME280;31382;50.200;8.674;2022-11-12T13:37:50;101919.13;;;10.68;72.30
45323;BME280;31382;50.200;8.674;2022-11-12T13:42:51;101913.06;;;10.76;72.52
45323;BME280;31382;50.200;8.674;2022-11-12T13:47:53;101903.19;;;10.96;72.17
45323;BME280;31382;50.200;8.674;2022-11-12T13:52:54;101897.94;;;11.14;71.75
45323;BME280;31382;50.200;8.674;2022-11-12T13:57:56;101904.03;;;11.25;71.75
45323;BME280;31382;50.200;8.674;2022-11-12T14:03:04;101892.72;;;11.22;71.57
45323;BME280;31382;50.200;8.674;2022-11-12T14:08:24;101885.50;;;11.22;71.66
45323;BME280;31382;50.200;8.674;2022-11-12T14:13:41;101890.31;;;11.19;71.39
45323;BME280;31382;50.200;8.674;2022-11-12T14:24:23;101890.44;;;11.37;71.50
45323;BME280;31382;50.200;8.674;2022-11-12T14:29:24;101867.75;;;11.39;71.43
45323;BME280;31382;50.200;8.674;2022-11-12T14:34:33;101872.16;;;11.40;71.37
45323;BME280;31382;50.200;8.674;2022-11-12T14:39:42;101876.56;;;11.31;71.21
45323;BME280;31382;50.200;8.674;2022-11-12T14:44:43;101864.91;;;11.41;71.10
45323;BME280;31382;50.200;8.674;2022-11-12T14:49:46;101856.44;;;11.45;70.81
45323;BME280;31382;50.200;8.674;2022-11-12T14:54:51;101858.25;;;11.35;70.83
45323;BME280;31382;50.200;8.674;2022-11-12T14:59:55;101864.38;;;11.27;71.41
45323;BME280;31382;50.200;8.674;2022-11-12T15:05:03;101870.19;;;11.23;71.59
45323;BME280;31382;50.200;8.674;2022-11-12T15:10:41;101873.00;;;11.21;71.49
45323;BME280;31382;50.200;8.674;2022-11-12T15:15:52;101873.44;;;11.17;71.46
45323;BME280;31382;50.200;8.674;2022-11-12T15:26:12;101869.78;;;11.08;71.35
45323;BME280;31382;50.200;8.674;2022-11-12T15:31:20;101863.00;;;11.04;71.61
45323;BME280;31382;50.200;8.674;2022-11-12T15:36:23;101855.88;;;11.03;71.47
45323;BME280;31382;50.200;8.674;2022-11-12T15:41:27;101849.09;;;10.99;71.51
45323;BME280;31382;50.200;8.674;2022-11-12T15:46:30;101848.81;;;10.82;72.08
45323;BME280;31382;50.200;8.674;2022-11-12T15:51:31;101840.28;;;10.58;72.32
45323;BME280;31382;50.200;8.674;2022-11-12T15:56:33;101835.75;;;10.58;72.03
45323;BME280;31382;50.200;8.674;2022-11-12T16:01:34;101834.91;;;10.67;71.86
45323;BME280;31382;50.200;8.674;2022-11-12T16:06:35;101831.38;;;10.57;72.22
45323;BME280;31382;50.200;8.674;2022-11-12T16:11:37;101824.72;;;10.51;72.42
45323;BME280;31382;50.200;8.674;2022-11-12T16:16:39;101819.31;;;10.42;72.75
45323;BME280;31382;50.200;8.674;2022-11-12T16:21:40;101817.84;;;10.28;73.04
45323;BME280;31382;50.200;8.674;2022-11-12T16:26:42;101815.16;;;10.28;73.12
45323;BME280;31382;50.200;8.674;2022-11-12T16:31:43;101816.19;;;10.37;72.73
45323;BME280;31382;50.200;8.674;2022-11-12T16:36:46;101812.66;;;10.36;72.75
45323;BME280;31382;50.200;8.674;2022-11-12T16:41:47;101805.44;;;10.37;72.85
45323;BME280;31382;50.200;8.674;2022-11-12T16:46:48;101802.34;;;10.41;73.06
45323;BME280;31382;50.200;8.674;2022-11-12T16:51:50;101802.47;;;10.40;73.02
45323;BME280;31382;50.200;8.674;2022-11-12T16:56:51;101810.09;;;10.35;73.25
45323;BME280;31382;50.200;8.674;2022-11-12T17:01:53;101811.09;;;10.34;73.44
45323;BME280;31382;50.200;8.674;2022-11-12T17:06:54;101812.31;;;10.29;73.32
45323;BME280;31382;50.200;8.674;2022-11-12T17:11:55;101821.97;;;10.32;73.08
45323;BME280;31382;50.200;8.674;2022-11-12T17:16:57;101815.13;;;10.18;73.42
45323;BME280;31382;50.200;8.674;2022-11-12T17:21:58;101807.91;;;10.19;73.32
45323;BME280;31382;50.200;8.674;2022-11-12T17:26:59;101805.75;;;10.12;73.74
45323;BME280;31382;50.200;8.674;2022-11-12T17:32:02;101796.41;;;10.07;73.82
45323;BME280;31382;50.200;8.674;2022-11-12T17:37:03;101802.66;;;10.07;73.84
45323;BME280;31382;50.200;8.674;2022-11-12T17:42:04;101805.06;;;10.10;73.43
45323;BME280;31382;50.200;8.674;2022-11-12T17:47:06;101796.59;;;10.15;73.67
45323;BME280;31382;50.200;8.674;2022-11-12T17:52:07;101800.69;;;10.09;73.55
45323;BME280;31382;50.200;8.674;2022-11-12T17:57:09;101796.03;;;10.11;73.54
45323;BME280;31382;50.200;8.674;2022-11-12T18:02:11;101799.69;;;10.10;73.44
45323;BME280;31382;50.200;8.674;2022-11-12T18:07:12;101788.22;;;10.08;73.74
45323;BME280;31382;50.200;8.674;2022-11-12T18:12:14;101788.63;;;10.04;73.98
45323;BME280;31382;50.200;8.674;2022-11-12T18:17:15;101791.19;;;10.05;74.03
45323;BME280;31382;50.200;8.674;2022-11-12T18:22:16;101791.91;;;10.07;73.77
45323;BME280;31382;50.200;8.674;2022-11-12T18:27:20;101787.38;;;10.08;73.87
45323;BME280;31382;50.200;8.674;2022-11-12T18:32:22;101781.72;;;10.01;73.91
45323;BME280;31382;50.200;8.674;2022-11-12T18:37:23;101785.63;;;9.97;74.17
45323;BME280;31382;50.200;8.674;2022-11-12T18:42:24;101783.94;;;9.96;74.23
45323;BME280;31382;50.200;8.674;2022-11-12T18:47:28;101775.44;;;9.91;74.34
45323;BME280;31382;50.200;8.674;2022-11-12T18:52:29;101769.34;;;9.89;74.28
45323;BME280;31382;50.200;8.674;2022-11-12T18:57:31;101765.41;;;9.93;74.00
45323;BME280;31382;50.200;8.674;2022-11-12T19:02:32;101752.97;;;9.92;74.15
45323;BME280;31382;50.200;8.674;2022-11-12T19:07:33;101749.28;;;9.93;74.02
45323;BME280;31382;50.200;8.674;2022-11-12T19:12:35;101743.75;;;9.85;74.32
45323;BME280;31382;50.200;8.674;2022-11-12T19:17:37;101738.94;;;9.79;74.27
45323;BME280;31382;50.200;8.674;2022-11-12T19:22:38;101753.19;;;9.79;73.99
45323;BME280;31382;50.200;8.674;2022-11-12T19:27:39;101755.84;;;9.69;74.21
45323;BME280;31382;50.200;8.674;2022-11-12T19:32:41;101746.81;;;9.70;74.27
45323;BME280;31382;50.200;8.674;2022-11-12T19:37:43;101749.72;;;9.58;74.20
45323;BME280;31382;50.200;8.674;2022-11-12T19:42:45;101746.16;;;9.47;74.36
45323;BME280;31382;50.200;8.674;2022-11-12T19:47:47;101747.81;;;9.39;74.59
45323;BME280;31382;50.200;8.674;2022-11-12T19:52:54;101744.31;;;9.38;74.34
45323;BME280;31382;50.200;8.674;2022-11-12T19:57:55;101751.84;;;9.23;74.76
45323;BME280;31382;50.200;8.674;2022-11-12T20:02:57;101742.13;;;9.32;74.31
45323;BME280;31382;50.200;8.674;2022-11-12T20:07:59;101736.38;;;9.37;74.55
45323;BME280;31382;50.200;8.674;2022-11-12T20:13:00;101733.63;;;9.27;74.54
45323;BME280;31382;50.200;8.674;2022-11-12T20:18:03;101733.63;;;9.27;74.66
45323;BME280;31382;50.200;8.674;2022-11-12T20:23:05;101728.00;;;9.30;74.41
45323;BME280;31382;50.200;8.674;2022-11-12T20:28:07;101725.06;;;9.33;74.38
45323;BME280;31382;50.200;8.674;2022-11-12T20:33:08;101725.63;;;9.37;74.44
45323;BME280;31382;50.200;8.674;2022-11-12T20:38:13;101720.41;;;9.35;74.44
45323;BME280;31382;50.200;8.674;2022-11-12T20:43:14;101714.91;;;9.37;74.46
45323;BME280;31382;50.200;8.674;2022-11-12T20:48:16;101715.63;;;9.39;74.37
45323;BME280;31382;50.200;8.674;2022-11-12T20:53:17;101707.56;;;9.39;74.49
45323;BME280;31382;50.200;8.674;2022-11-12T20:58:19;101705.31;;;9.34;74.27
45323;BME280;31382;50.200;8.674;2022-11-12T21:03:20;101693.31;;;9.38;74.53
45323;BME280;31382;50.200;8.674;2022-11-12T21:08:21;101701.03;;;9.31;74.29
45323;BME280;31382;50.200;8.674;2022-11-12T21:13:23;101687.22;;;9.36;74.27
45323;BME280;31382;50.200;8.674;2022-11-12T21:18:25;101692.00;;;9.32;74.24
45323;BME280;31382;50.200;8.674;2022-11-12T21:23:32;101684.34;;;9.28;74.55
45323;BME280;31382;50.200;8.674;2022-11-12T21:28:34;101678.97;;;9.28;74.50
45323;BME280;31382;50.200;8.674;2022-11-12T21:33:38;101680.53;;;9.21;74.31
45323;BME280;31382;50.200;8.674;2022-11-12T21:38:39;101675.41;;;9.18;74.32
45323;BME280;31382;50.200;8.674;2022-11-12T21:43:43;101667.91;;;9.11;74.39
45323;BME280;31382;50.200;8.674;2022-11-12T21:48:45;101675.81;;;9.13;74.47
45323;BME280;31382;50.200;8.674;2022-11-12T21:53:54;101665.09;;;9.13;74.57
45323;BME280;31382;50.200;8.674;2022-11-12T21:58:56;101661.22;;;9.06;74.27
45323;BME280;31382;50.200;8.674;2022-11-12T22:04:04;101652.47;;;9.04;74.59
45323;BME280;31382;50.200;8.674;2022-11-12T22:09:05;101645.41;;;9.03;74.42
45323;BME280;31382;50.200;8.674;2022-11-12T22:14:07;101647.53;;;8.99;74.57
45323;BME280;31382;50.200;8.674;2022-11-12T22:19:08;101635.91;;;8.89;74.80
45323;BME280;31382;50.200;8.674;2022-11-12T22:24:11;101634.59;;;8.83;74.21
45323;BME280;31382;50.200;8.674;2022-11-12T22:29:12;101627.38;;;8.84;74.70
45323;BME280;31382;50.200;8.674;2022-11-12T22:34:14;101621.97;;;8.74;74.86
45323;BME280;31382;50.200;8.674;2022-11-12T22:39:15;101625.66;;;8.73;74.79
45323;BME280;31382;50.200;8.674;2022-11-12T22:44:17;101618.16;;;8.77;74.26
45323;BME280;31382;50.200;8.674;2022-11-12T22:49:19;101616.63;;;8.74;74.04
45323;BME280;31382;50.200;8.674;2022-11-12T22:54:20;101609.81;;;8.70;74.32
45323;BME280;31382;50.200;8.674;2022-11-12T22:59:21;101608.38;;;8.66;74.59
45323;BME280;31382;50.200;8.674;2022-11-12T23:04:23;101609.22;;;8.66;74.19
45323;BME280;31382;50.200;8.674;2022-11-12T23:09:24;101611.91;;;8.66;74.20
45323;BME280;31382;50.200;8.674;2022-11-12T23:14:25;101600.88;;;8.60;74.44
45323;BME280;31382;50.200;8.674;2022-11-12T23:19:27;101613.63;;;8.46;74.25
45323;BME280;31382;50.200;8.674;2022-11-12T23:24:28;101607.16;;;8.49;74.13
45323;BME280;31382;50.200;8.674;2022-11-12T23:29:30;101599.50;;;8.44;74.55
45323;BME280;31382;50.200;8.674;2022-11-12T23:34:31;101594.19;;;8.33;74.81
45323;BME280;31382;50.200;8.674;2022-11-12T23:39:33;101591.38;;;8.34;74.59
45323;BME280;31382;50.200;8.674;2022-11-12T23:44:34;101587.38;;;8.29;74.32
45323;BME280;31382;50.200;8.674;2022-11-12T23:49:35;101580.63;;;8.13;74.18
45323;BME280;31382;50.200;8.674;2022-11-12T23:54:37;101577.91;;;8.04;74.15
45323;BME280;31382;50.200;8.674;2022-11-12T23:59:38;101580.63;;;7.92;74.74
